GANR

Nioro du Sahel Airport

Nioro du Sahel, Mali
METAR GANR 221500Z 06008KT 3000 DU 43/17 Q1008
Observed Flight Rules
May-22 @ 15:00 UTC (26 minutes ago)
Wind Visibility Conditions
60° at 8 knots 2,993 meters
  • Dust
Temperatures Readings
Current 43°C / 109°F
Dewpoint 17°C / 63°F
Humidity 22%
Altimeter 29.76" Hg
Pressure 1008 hPa
Elevation 237
METAR GANR 221500Z 06008KT 3000 DU 43/17 Q1008
Observed Flight Rules
May-22 @ 15:00 UTC
(26 minutes ago)
Wind Visibility
60° at 8 knots 2,993 meters
Conditions
  • Dust
Temperature Dewpoint
43°C / 109°F 17°C / 63°F
Humidity Altimeter Pressure
22% 29.76" Hg 1008 hPa